createdAt,value
2018-07-06T00:01:11.815Z,13.80
2018-07-06T00:03:51.316Z,14.80
2018-07-06T00:06:31.059Z,13.20
2018-07-06T00:09:10.693Z,13.48
2018-07-06T00:11:50.333Z,13.70
2018-07-06T00:14:30.032Z,14.17
2018-07-06T00:17:09.714Z,14.33
2018-07-06T00:19:49.174Z,13.90
2018-07-06T00:22:28.908Z,12.67
2018-07-06T00:25:08.556Z,13.75
2018-07-06T00:27:48.221Z,12.73
2018-07-06T00:30:27.879Z,11.75
2018-07-06T00:33:07.315Z,14.43
2018-07-06T00:35:46.903Z,13.50
2018-07-06T00:38:26.464Z,13.53
2018-07-06T00:41:06.159Z,12.90
2018-07-06T00:43:45.708Z,15.40
2018-07-06T00:46:25.391Z,15.00
2018-07-06T00:49:04.924Z,15.17
2018-07-06T00:51:44.720Z,15.37
2018-07-06T00:54:24.331Z,17.33
2018-07-06T00:57:03.989Z,16.00
2018-07-06T00:59:43.699Z,16.52
2018-07-06T01:02:23.207Z,18.20
2018-07-06T01:05:02.788Z,17.52
2018-07-06T01:07:42.547Z,18.50
2018-07-06T01:10:22.293Z,19.27
2018-07-06T01:13:01.083Z,18.50
2018-07-06T01:15:40.642Z,17.87
2018-07-06T01:18:20.268Z,16.87
2018-07-06T01:21:00.349Z,17.87
2018-07-06T01:23:39.942Z,18.53
2018-07-06T01:26:19.674Z,20.37
2018-07-06T01:28:59.682Z,18.70
2018-07-06T01:31:39.374Z,20.40
2018-07-06T01:34:19.008Z,19.00
2018-07-06T01:36:58.598Z,18.15
2018-07-06T01:39:39.110Z,19.42
2018-07-06T01:42:18.685Z,19.97
2018-07-06T01:44:58.230Z,19.30
2018-07-06T01:47:31.744Z,18.97
2018-07-06T01:50:05.418Z,19.23
2018-07-06T01:52:39.150Z,18.75
2018-07-06T01:55:18.676Z,19.47
2018-07-06T01:57:58.346Z,17.62
2018-07-06T02:00:38.197Z,18.82
2018-07-06T02:03:17.654Z,19.40
2018-07-06T02:05:57.090Z,20.10
2018-07-06T02:08:36.624Z,21.93
2018-07-06T02:11:16.483Z,19.50
2018-07-06T02:13:56.236Z,20.10
2018-07-06T02:16:35.854Z,20.33
2018-07-06T02:19:09.500Z,21.17
2018-07-06T02:21:43.115Z,22.52
2018-07-06T02:24:17.030Z,23.17
2018-07-06T02:26:50.564Z,23.20
2018-07-06T02:29:30.225Z,23.33
2018-07-06T02:32:09.967Z,23.15
2018-07-06T02:34:49.702Z,22.30
2018-07-06T02:37:29.366Z,24.02
2018-07-06T02:40:09.097Z,20.93
2018-07-06T02:42:48.771Z,23.60
2018-07-06T02:45:22.550Z,26.13
2018-07-06T02:47:56.284Z,23.53
2018-07-06T02:50:35.845Z,25.97
2018-07-06T02:53:15.500Z,24.07
2018-07-06T02:55:55.196Z,25.93
2018-07-06T02:58:34.773Z,24.30
2018-07-06T03:01:14.510Z,23.83
2018-07-06T03:03:54.031Z,24.20
2018-07-06T03:06:33.500Z,24.95
2018-07-06T03:09:14.430Z,27.10
2018-07-06T03:11:54.186Z,24.97
2018-07-06T03:14:28.049Z,25.50
2018-07-06T03:17:02.531Z,25.33
2018-07-06T03:19:42.241Z,21.90
2018-07-06T03:22:16.009Z,23.50
2018-07-06T03:24:55.711Z,23.20
2018-07-06T03:27:35.285Z,20.60
2018-07-06T03:30:08.827Z,19.90
2018-07-06T03:32:48.412Z,21.00
2018-07-06T03:35:28.082Z,19.23
2018-07-06T03:38:01.666Z,20.27
2018-07-06T03:40:35.344Z,20.30
2018-07-06T03:43:14.910Z,20.60
2018-07-06T03:45:54.495Z,19.03
2018-07-06T03:48:34.231Z,19.23
2018-07-06T03:51:14.465Z,18.65
2018-07-06T03:53:54.143Z,19.20
2018-07-06T03:56:33.723Z,18.73
2018-07-06T03:59:13.300Z,20.17
2018-07-06T04:01:52.943Z,17.13
2018-07-06T04:04:33.250Z,18.03
2018-07-06T04:07:12.743Z,19.73
2018-07-06T04:09:52.409Z,18.50
2018-07-06T04:12:31.854Z,17.37
2018-07-06T04:15:11.460Z,16.57
2018-07-06T04:17:50.904Z,17.00
2018-07-06T04:20:30.455Z,15.65
2018-07-06T04:23:09.921Z,17.00
2018-07-06T04:25:49.553Z,16.33
2018-07-06T04:28:29.129Z,16.80
2018-07-06T04:31:02.640Z,15.43
2018-07-06T04:33:36.322Z,15.90
2018-07-06T04:36:10.241Z,16.40
2018-07-06T04:38:50.154Z,15.60
2018-07-06T04:41:29.774Z,14.90
2018-07-06T04:44:09.409Z,17.10
2018-07-06T04:46:48.893Z,16.83
2018-07-06T04:49:28.485Z,15.80
2018-07-06T04:52:08.150Z,14.80
2018-07-06T04:54:47.753Z,15.07
2018-07-06T04:57:28.002Z,14.28
2018-07-06T05:00:01.753Z,14.43
2018-07-06T05:02:41.307Z,14.35
2018-07-06T05:05:20.761Z,14.60
2018-07-06T05:07:54.627Z,13.83
2018-07-06T05:10:28.183Z,14.07
2018-07-06T05:13:01.905Z,12.87
2018-07-06T05:15:35.572Z,12.28
2018-07-06T05:18:09.190Z,13.43
2018-07-06T05:20:42.796Z,13.80
2018-07-06T05:23:16.518Z,13.43
2018-07-06T05:25:56.067Z,13.60
2018-07-06T05:28:35.673Z,13.40
2018-07-06T05:31:15.332Z,12.30
2018-07-06T05:33:48.967Z,12.55
2018-07-06T05:36:28.384Z,11.27
2018-07-06T05:39:08.042Z,11.70
2018-07-06T05:41:47.601Z,11.22
2018-07-06T05:44:21.162Z,9.25
2018-07-06T05:47:00.765Z,10.23
2018-07-06T05:49:40.394Z,9.47
2018-07-06T05:52:14.062Z,8.33
2018-07-06T05:54:53.739Z,8.10
2018-07-06T05:57:33.440Z,9.13
2018-07-06T06:00:13.009Z,9.13
2018-07-06T06:02:52.949Z,8.97
2018-07-06T06:05:32.493Z,8.33
2018-07-06T06:07:59.844Z,8.40
2018-07-06T06:10:28.359Z,7.75
2018-07-06T06:12:56.843Z,8.37
2018-07-06T06:15:25.443Z,8.77
2018-07-06T06:17:53.959Z,9.48
2018-07-06T06:20:22.431Z,9.18
2018-07-06T06:22:50.931Z,8.73
2018-07-06T06:25:19.138Z,8.23
2018-07-06T06:27:47.703Z,7.73
2018-07-06T06:30:16.257Z,8.33
2018-07-06T06:32:45.332Z,9.60
2018-07-06T06:35:13.909Z,8.40
2018-07-06T06:37:42.999Z,8.23
2018-07-06T06:40:11.248Z,9.10
2018-07-06T06:42:40.345Z,9.83
2018-07-06T06:45:08.550Z,10.03
2018-07-06T06:47:37.245Z,9.83
2018-07-06T06:50:05.776Z,9.23
2018-07-06T06:52:34.340Z,8.45
2018-07-06T06:55:02.535Z,7.93
2018-07-06T06:57:31.456Z,8.20
2018-07-06T07:00:00.040Z,6.97
2018-07-06T07:02:28.693Z,7.60
2018-07-06T07:04:57.198Z,8.70
2018-07-06T07:07:25.940Z,8.00
2018-07-06T07:09:54.442Z,7.03
2018-07-06T07:12:22.929Z,7.45
2018-07-06T07:14:51.446Z,7.30
2018-07-06T07:17:19.947Z,7.40
2018-07-06T07:19:48.195Z,7.50
2018-07-06T07:22:16.759Z,8.07
2018-07-06T07:24:45.478Z,7.77
2018-07-06T07:27:14.259Z,6.72
2018-07-06T07:29:42.928Z,8.03
2018-07-06T07:32:11.350Z,7.43
2018-07-06T07:34:39.838Z,7.30
2018-07-06T07:37:08.395Z,6.73
2018-07-06T07:39:36.974Z,8.10
2018-07-06T07:42:05.525Z,7.67
2018-07-06T07:44:33.872Z,8.70
2018-07-06T07:47:02.632Z,6.10
2018-07-06T07:49:31.168Z,6.87
2018-07-06T07:52:12.135Z,6.20
2018-07-06T07:54:46.060Z,8.10
2018-07-06T07:57:14.989Z,8.28
2018-07-06T07:59:43.888Z,8.87
2018-07-06T08:02:12.731Z,8.53
2018-07-06T08:04:41.671Z,7.97
2018-07-06T08:07:10.157Z,6.87
2018-07-06T08:09:38.396Z,6.53
2018-07-06T08:12:06.570Z,6.10
2018-07-06T08:14:35.084Z,7.00
2018-07-06T08:17:03.219Z,7.58
2018-07-06T08:19:31.792Z,7.65
2018-07-06T08:22:00.364Z,7.00
2018-07-06T08:24:28.525Z,6.50
2018-07-06T08:26:57.123Z,5.75
2018-07-06T08:29:25.614Z,5.57
2018-07-06T08:31:53.813Z,5.20
2018-07-06T08:34:27.607Z,5.35
2018-07-06T08:37:31.723Z,4.77
2018-07-06T08:40:00.123Z,5.40
2018-07-06T08:42:29.643Z,5.67
2018-07-06T08:44:58.668Z,4.70
2018-07-06T08:47:26.870Z,6.60
2018-07-06T08:49:55.939Z,6.60
2018-07-06T08:52:24.442Z,6.70
2018-07-06T08:54:52.994Z,5.23
2018-07-06T08:57:22.150Z,6.30
2018-07-06T08:59:51.063Z,5.70
2018-07-06T09:02:19.543Z,5.70
2018-07-06T09:04:48.357Z,4.90
2018-07-06T09:07:16.626Z,5.10
2018-07-06T09:09:44.887Z,5.37
2018-07-06T09:12:13.584Z,5.63
2018-07-06T09:14:41.899Z,5.80
2018-07-06T09:17:12.759Z,5.27
2018-07-06T09:19:41.479Z,4.20
2018-07-06T09:22:09.685Z,4.08
2018-07-06T09:24:37.892Z,4.35
2018-07-06T09:27:06.482Z,4.53
2018-07-06T09:29:34.691Z,4.83
2018-07-06T09:32:02.891Z,4.60
2018-07-06T09:34:31.120Z,4.70
2018-07-06T09:36:59.560Z,4.73
2018-07-06T09:39:27.728Z,5.00
2018-07-06T09:41:56.500Z,3.60
2018-07-06T09:44:24.665Z,3.77
2018-07-06T09:46:52.835Z,3.35
2018-07-06T09:49:21.033Z,4.30
2018-07-06T09:51:49.983Z,3.50
2018-07-06T09:54:18.224Z,3.60
2018-07-06T09:56:46.380Z,3.42
2018-07-06T09:59:14.575Z,4.20
2018-07-06T10:01:42.746Z,3.63
2018-07-06T10:04:10.974Z,3.40
2018-07-06T10:06:39.095Z,3.50
2018-07-06T10:09:08.703Z,3.40
2018-07-06T10:11:36.921Z,4.00
2018-07-06T10:14:05.063Z,3.43
2018-07-06T10:16:33.323Z,3.33
2018-07-06T10:19:01.487Z,3.07
2018-07-06T10:21:29.666Z,4.53
2018-07-06T10:23:57.829Z,3.80
2018-07-06T10:26:26.037Z,3.27
2018-07-06T10:28:59.974Z,3.63
2018-07-06T10:32:04.614Z,4.08
2018-07-06T10:34:33.091Z,3.10
2018-07-06T10:37:01.656Z,3.12
2018-07-06T10:39:30.253Z,3.50
2018-07-06T10:41:58.738Z,3.10
2018-07-06T10:44:27.259Z,3.50
2018-07-06T10:46:55.633Z,3.37
2018-07-06T10:49:24.266Z,3.07
2018-07-06T10:51:52.898Z,2.55
2018-07-06T10:54:22.753Z,3.07
2018-07-06T10:56:51.741Z,2.80
2018-07-06T10:59:20.467Z,2.57
2018-07-06T11:01:51.419Z,2.75
2018-07-06T11:04:22.990Z,2.97
2018-07-06T11:16:23.458Z,3.40
2018-07-06T11:18:52.094Z,2.33
2018-07-06T11:21:20.588Z,2.50
2018-07-06T11:23:49.135Z,2.47
2018-07-06T11:26:17.680Z,2.50
2018-07-06T11:28:46.399Z,2.60
2018-07-06T11:31:14.955Z,2.90
2018-07-06T11:33:43.490Z,3.33
2018-07-06T11:36:12.279Z,3.00
2018-07-06T11:38:40.842Z,2.25
2018-07-06T11:41:09.396Z,2.77
2018-07-06T11:43:37.947Z,2.63
2018-07-06T11:46:06.652Z,2.80
2018-07-06T11:48:35.181Z,2.47
2018-07-06T11:51:03.825Z,2.75
2018-07-06T11:53:32.360Z,2.20
2018-07-06T11:56:00.980Z,2.37
2018-07-06T11:58:29.475Z,2.12
2018-07-06T12:06:24.314Z,2.10
2018-07-06T12:08:52.910Z,2.47
2018-07-06T12:11:21.464Z,2.00
2018-07-06T12:13:50.080Z,1.70
2018-07-06T12:16:18.653Z,2.08
2018-07-06T12:18:47.156Z,2.03
2018-07-06T12:21:15.785Z,2.00
2018-07-06T12:23:44.223Z,2.20
2018-07-06T12:26:13.763Z,2.20
2018-07-06T12:28:45.859Z,2.10
2018-07-06T12:31:14.538Z,2.30
2018-07-06T12:33:43.147Z,2.43
2018-07-06T12:36:12.444Z,2.47
2018-07-06T12:38:41.037Z,2.63
2018-07-06T12:41:09.562Z,2.70
2018-07-06T12:43:38.063Z,2.20
2018-07-06T12:46:06.651Z,2.40
2018-07-06T12:48:35.164Z,2.30
2018-07-06T12:51:04.084Z,2.50
2018-07-06T12:53:32.634Z,2.50
2018-07-06T12:56:02.069Z,2.73
2018-07-06T12:58:30.673Z,2.40
2018-07-06T13:00:59.119Z,2.83
2018-07-06T13:03:27.716Z,2.63
2018-07-06T13:05:56.340Z,2.90
2018-07-06T13:08:24.888Z,2.52
2018-07-06T13:10:53.437Z,2.58
2018-07-06T13:13:21.994Z,1.90
2018-07-06T13:15:50.568Z,1.80
2018-07-06T13:18:19.080Z,2.40
2018-07-06T13:20:47.774Z,2.33
2018-07-06T13:23:16.454Z,2.10
2018-07-06T13:25:44.958Z,2.55
2018-07-06T13:28:14.094Z,2.45
2018-07-06T13:30:42.624Z,1.90
2018-07-06T13:33:11.100Z,2.17
2018-07-06T13:35:39.693Z,2.40
2018-07-06T13:38:08.428Z,2.20
2018-07-06T13:40:38.574Z,2.30
2018-07-06T13:43:08.911Z,2.30
2018-07-06T13:45:39.335Z,2.63
2018-07-06T13:48:07.843Z,2.30
2018-07-06T13:50:36.428Z,2.97
2018-07-06T13:53:05.014Z,2.60
2018-07-06T13:55:33.451Z,2.00
2018-07-06T13:58:02.085Z,2.30
2018-07-06T14:00:30.562Z,2.73
2018-07-06T14:02:59.040Z,2.87
2018-07-06T14:05:27.580Z,3.22
2018-07-06T14:07:56.116Z,2.30
2018-07-06T14:10:24.576Z,2.47
2018-07-06T14:12:52.768Z,2.33
2018-07-06T14:16:23.711Z,3.30
2018-07-06T14:18:51.928Z,3.33
2018-07-06T14:21:20.171Z,3.25
2018-07-06T14:23:48.895Z,3.00
2018-07-06T14:26:17.436Z,3.70
2018-07-06T14:28:48.165Z,3.10
2018-07-06T14:31:16.684Z,3.37
2018-07-06T14:33:45.721Z,3.23
2018-07-06T14:36:13.990Z,3.03
2018-07-06T14:38:42.280Z,3.30
2018-07-06T14:41:10.557Z,3.43
2018-07-06T14:43:38.627Z,3.50
2018-07-06T14:46:06.754Z,3.60
2018-07-06T14:48:34.998Z,3.53
2018-07-06T14:51:03.314Z,4.03
2018-07-06T14:53:31.761Z,3.83
2018-07-06T14:56:00.088Z,3.53
2018-07-06T14:58:28.268Z,3.40
2018-07-06T15:00:56.513Z,3.90
2018-07-06T15:03:24.697Z,3.30
2018-07-06T15:05:52.874Z,3.40
2018-07-06T15:08:21.779Z,3.33
2018-07-06T15:10:50.011Z,3.30
2018-07-06T15:13:18.563Z,3.42
2018-07-06T15:15:47.200Z,3.53
2018-07-06T15:18:15.533Z,3.57
2018-07-06T15:20:44.068Z,3.40
2018-07-06T15:23:12.812Z,3.17
2018-07-06T15:25:41.330Z,3.50
2018-07-06T15:28:09.542Z,3.30
2018-07-06T15:30:38.201Z,3.80
2018-07-06T15:33:07.468Z,3.50
2018-07-06T15:35:36.202Z,3.90
2018-07-06T15:38:04.500Z,3.60
2018-07-06T15:40:32.729Z,3.80
2018-07-06T15:43:01.096Z,3.50
2018-07-06T15:45:29.498Z,3.57
2018-07-06T15:47:57.644Z,3.37
2018-07-06T15:50:26.013Z,3.27
2018-07-06T15:52:55.161Z,3.90
2018-07-06T15:55:23.366Z,4.00
2018-07-06T15:57:51.660Z,3.53
2018-07-06T16:00:19.834Z,4.77
2018-07-06T16:02:48.094Z,3.57
2018-07-06T16:05:16.378Z,3.57
2018-07-06T16:07:44.891Z,4.00
2018-07-06T16:10:13.524Z,3.60
2018-07-06T16:12:41.807Z,4.00
2018-07-06T16:15:10.046Z,4.50
2018-07-06T16:17:38.259Z,4.30
2018-07-06T16:20:08.237Z,3.80
2018-07-06T16:22:41.212Z,4.10
2018-07-06T16:25:09.586Z,3.83
2018-07-06T16:27:37.803Z,4.10
2018-07-06T16:30:06.109Z,4.23
2018-07-06T16:32:38.605Z,4.17
2018-07-06T16:35:08.743Z,3.57
2018-07-06T16:37:37.211Z,4.17
2018-07-06T16:40:05.440Z,3.60
2018-07-06T16:42:33.802Z,4.08
2018-07-06T16:45:02.210Z,4.30
2018-07-06T16:47:30.405Z,4.20
2018-07-06T16:49:58.680Z,4.17
2018-07-06T16:52:26.952Z,4.28
2018-07-06T16:54:56.474Z,4.57
2018-07-06T16:57:24.782Z,4.07
2018-07-06T16:59:53.174Z,4.13
2018-07-06T17:02:21.352Z,4.40
2018-07-06T17:04:49.885Z,4.30
2018-07-06T17:07:18.080Z,4.50
2018-07-06T17:09:46.422Z,4.37
2018-07-06T17:12:14.799Z,5.00
2018-07-06T17:14:42.996Z,5.27
2018-07-06T17:17:11.303Z,5.07
2018-07-06T17:19:39.491Z,4.30
2018-07-06T17:22:08.081Z,4.63
2018-07-06T17:24:36.266Z,3.90
2018-07-06T17:27:04.569Z,4.77
2018-07-06T17:29:32.765Z,4.40
2018-07-06T17:32:01.920Z,4.83
2018-07-06T17:34:30.120Z,4.25
2018-07-06T17:36:59.224Z,4.17
2018-07-06T17:39:27.422Z,3.90
2018-07-06T17:41:55.725Z,4.45
2018-07-06T17:44:24.098Z,4.30
2018-07-06T17:46:52.201Z,4.43
2018-07-06T17:49:20.368Z,4.07
2018-07-06T17:51:50.782Z,4.75
2018-07-06T17:54:19.029Z,3.93
2018-07-06T17:56:48.242Z,4.42
2018-07-06T17:59:16.530Z,4.80
2018-07-06T18:01:44.726Z,4.30
2018-07-06T18:04:12.887Z,3.80
2018-07-06T18:06:41.080Z,4.17
2018-07-06T18:09:09.372Z,3.87
2018-07-06T18:11:38.360Z,4.23
2018-07-06T18:14:06.840Z,4.60
2018-07-06T18:16:35.076Z,4.50
2018-07-06T18:19:03.251Z,4.57
2018-07-06T18:21:31.676Z,3.80
2018-07-06T18:23:59.839Z,3.77
2018-07-06T18:26:28.084Z,4.43
2018-07-06T18:28:57.515Z,4.60
2018-07-06T18:31:25.677Z,4.63
2018-07-06T18:33:54.003Z,4.33
2018-07-06T18:36:24.522Z,4.72
2018-07-06T18:38:54.043Z,4.10
2018-07-06T18:41:22.211Z,5.03
2018-07-06T18:43:53.324Z,4.37
2018-07-06T18:46:21.599Z,4.43
2018-07-06T18:48:49.951Z,4.83
2018-07-06T18:51:18.157Z,4.72
2018-07-06T18:53:46.436Z,4.63
2018-07-06T18:56:15.551Z,5.27
2018-07-06T18:58:50.264Z,5.03
2018-07-06T19:01:20.027Z,4.90
2018-07-06T19:03:48.222Z,4.70
2018-07-06T19:06:16.604Z,4.80
2018-07-06T19:08:45.316Z,5.30
2018-07-06T19:11:16.759Z,5.10
2018-07-06T19:13:44.895Z,5.20
2018-07-06T19:16:13.721Z,4.50
2018-07-06T19:18:42.335Z,5.00
2018-07-06T19:21:10.576Z,5.23
2018-07-06T19:23:38.797Z,4.80
2018-07-06T19:26:07.538Z,4.50
2018-07-06T19:28:35.712Z,4.97
2018-07-06T19:31:03.939Z,5.17
2018-07-06T19:36:25.215Z,5.00
2018-07-06T19:38:53.516Z,4.90
2018-07-06T19:41:21.739Z,5.20
2018-07-06T19:43:50.168Z,5.07
2018-07-06T19:46:18.343Z,5.20
2018-07-06T19:48:46.603Z,5.00
2018-07-06T19:51:14.788Z,4.80
2018-07-06T19:53:43.208Z,5.40
2018-07-06T19:56:11.634Z,4.90
2018-07-06T19:58:39.800Z,4.60
2018-07-06T20:01:07.948Z,5.23
2018-07-06T20:03:36.099Z,5.00
2018-07-06T20:06:04.553Z,4.83
2018-07-06T20:08:32.983Z,4.80
2018-07-06T20:11:01.139Z,4.62
2018-07-06T20:13:30.097Z,5.50
2018-07-06T20:15:58.444Z,4.93
2018-07-06T20:18:26.614Z,5.70
2018-07-06T20:20:54.883Z,5.23
2018-07-06T20:23:23.045Z,5.17
2018-07-06T20:25:51.337Z,4.83
2018-07-06T20:28:19.552Z,5.47
2018-07-06T20:30:47.751Z,5.33
2018-07-06T20:33:16.013Z,5.57
2018-07-06T20:35:45.224Z,5.47
2018-07-06T20:38:13.419Z,5.85
2018-07-06T20:40:41.590Z,5.43
2018-07-06T20:43:09.882Z,5.43
2018-07-06T20:45:38.151Z,5.80
2018-07-06T20:48:06.400Z,5.17
2018-07-06T20:50:34.661Z,5.10
2018-07-06T20:53:03.753Z,5.80
2018-07-06T20:55:32.076Z,5.30
2018-07-06T20:58:00.369Z,5.70
2018-07-06T21:00:28.554Z,6.00
2018-07-06T21:02:56.742Z,6.00
2018-07-06T21:05:25.759Z,5.50
2018-07-06T21:07:57.201Z,5.60
2018-07-06T21:10:27.400Z,5.97
2018-07-06T21:12:56.897Z,5.30
2018-07-06T21:16:23.834Z,6.10
2018-07-06T21:18:52.190Z,5.62
2018-07-06T21:21:21.216Z,5.30
2018-07-06T21:23:51.163Z,5.58
2018-07-06T21:26:19.421Z,5.90
2018-07-06T21:28:47.662Z,6.50
2018-07-06T21:31:15.863Z,6.77
2018-07-06T21:33:44.102Z,5.20
2018-07-06T21:36:12.458Z,6.53
2018-07-06T21:38:40.724Z,5.30
2018-07-06T21:41:08.929Z,5.70
2018-07-06T21:43:37.231Z,6.13
2018-07-06T21:46:05.442Z,5.90
2018-07-06T21:48:33.603Z,5.57
2018-07-06T21:51:01.780Z,5.90
2018-07-06T21:53:30.142Z,6.17
2018-07-06T21:56:07.664Z,6.40
2018-07-06T21:58:37.902Z,6.50
2018-07-06T22:01:08.364Z,5.57
2018-07-06T22:03:36.697Z,6.05
2018-07-06T22:06:04.909Z,6.67
2018-07-06T22:08:33.145Z,6.13
2018-07-06T22:11:01.416Z,7.30
2018-07-06T22:13:29.617Z,6.57
2018-07-06T22:15:57.818Z,7.00
2018-07-06T22:18:26.856Z,7.03
2018-07-06T22:20:55.070Z,6.90
2018-07-06T22:23:23.418Z,6.45
2018-07-06T22:29:03.821Z,6.87
2018-07-06T22:31:32.506Z,6.50
2018-07-06T22:34:01.094Z,6.33
2018-07-06T22:36:30.768Z,7.30
2018-07-06T22:38:59.718Z,7.03
2018-07-06T22:41:27.949Z,6.70
2018-07-06T22:43:56.229Z,7.10
2018-07-06T22:46:24.590Z,7.25
2018-07-06T22:48:53.716Z,6.20
2018-07-06T22:51:28.683Z,6.83
2018-07-06T22:54:00.830Z,7.43
2018-07-06T22:56:29.128Z,7.90
2018-07-06T22:58:57.636Z,6.50
2018-07-06T23:01:25.925Z,6.60
2018-07-06T23:04:05.124Z,7.43
2018-07-06T23:06:50.801Z,6.70
2018-07-06T23:09:20.613Z,7.10
2018-07-06T23:11:54.925Z,6.70
2018-07-06T23:14:23.411Z,6.67
2018-07-06T23:23:39.002Z,6.87
2018-07-06T23:26:07.925Z,6.80
2018-07-06T23:28:36.109Z,5.87
2018-07-06T23:31:04.268Z,6.50
2018-07-06T23:33:32.448Z,7.17
2018-07-06T23:36:00.650Z,6.30
2018-07-06T23:38:28.859Z,6.43
2018-07-06T23:40:57.093Z,6.80
2018-07-06T23:43:25.327Z,7.07
2018-07-06T23:45:53.493Z,6.57
2018-07-06T23:48:21.673Z,6.10
2018-07-06T23:50:50.608Z,7.23
2018-07-06T23:53:18.790Z,6.90
2018-07-06T23:55:46.930Z,6.60
2018-07-06T23:58:15.170Z,8.60
